Time;durP1;ratioP1;P1;durP2;ratioP2;P2;SDS_P1;SDS_P2;PMS_P1;PMS_P2;Temp;Humidity;BMP_temperature;BMP_pressure;BME280_temperature;BME280_humidity;BME280_pressure;Samples;Min_cycle;Max_cycle;Signal;HPM_P1;HPM_P2
2023/04/06 00:00:37;;;;;;;;;;;2.70;94.30;;;;;;5007478;28;209006;-68
2023/04/06 00:03:03;;;;;;;;;;;2.70;94.40;;;;;;5074765;28;20622;-69
2023/04/06 00:05:30;;;;;;;;;;;2.60;94.50;;;;;;4990498;28;212010;-69
2023/04/06 00:07:59;;;;;;;;;;;2.60;94.60;;;;;;5054420;28;19932;-67
2023/04/06 00:10:26;;;;;;;;;;;2.60;94.70;;;;;;5011696;28;211708;-67
2023/04/06 00:12:52;;;;;;;;;;;2.50;94.70;;;;;;5069535;28;20277;-68
2023/04/06 00:15:18;;;;;;;;;;;2.40;94.70;;;;;;5024459;28;203908;-67
2023/04/06 00:17:44;;;;;;;;;;;2.30;94.80;;;;;;5071776;28;19925;-68
2023/04/06 00:20:10;;;;;;;;;;;2.30;95.00;;;;;;5005270;28;205415;-68
2023/04/06 00:22:36;;;;;;;;;;;2.30;95.20;;;;;;5046969;28;19932;-67
2023/04/06 00:25:02;;;;;;;;;;;2.20;95.30;;;;;;5003743;28;215145;-67
2023/04/06 00:27:28;;;;;;;;;;;2.20;95.40;;;;;;5056647;28;20312;-68
2023/04/06 00:29:54;;;;;;;;;;;2.10;95.50;;;;;;5002620;28;212120;-68
2023/04/06 00:32:20;;;;;;;;;;;2.10;95.60;;;;;;5059701;28;19924;-68
2023/04/06 00:34:45;;;;;;;;;;;2.10;95.80;;;;;;5025521;28;207781;-67
2023/04/06 00:37:12;;;;;;;;;;;2.00;95.80;;;;;;5048240;28;19927;-69
2023/04/06 00:39:37;;;;;;;;;;;2.00;96.00;;;;;;5061350;28;19921;-67
2023/04/06 00:42:08;;;;;;;;;;;2.00;96.00;;;;;;5015585;28;264048;-69
2023/04/06 00:44:34;;;;;;;;;;;1.90;96.00;;;;;;5063525;28;20424;-68
2023/04/06 00:47:00;;;;;;;;;;;1.90;96.20;;;;;;5014290;28;205832;-68
2023/04/06 00:49:26;;;;;;;;;;;1.90;96.30;;;;;;5060475;28;20660;-67
2023/04/06 00:51:52;;;;;;;;;;;1.90;96.50;;;;;;5001857;28;206995;-68
2023/04/06 00:54:18;;;;;;;;;;;1.80;96.40;;;;;;5061407;28;19959;-68
2023/04/06 00:56:44;;;;;;;;;;;1.80;96.50;;;;;;4992077;28;222131;-67
2023/04/06 00:59:11;;;;;;;;;;;1.80;96.60;;;;;;5059108;28;19924;-67
2023/04/06 01:01:37;;;;;;;;;;;1.70;96.80;;;;;;5002281;28;210844;-67
2023/04/06 01:04:03;;;;;;;;;;;1.70;96.90;;;;;;5058768;28;19931;-67
2023/04/06 01:06:29;;;;;;;;;;;1.70;97.00;;;;;;4996605;28;208525;-67
2023/04/06 01:08:55;;;;;;;;;;;1.60;97.00;;;;;;5058833;28;20026;-68
2023/04/06 01:11:21;;;;;;;;;;;1.60;97.20;;;;;;5001500;28;221416;-67
2023/04/06 01:13:47;;;;;;;;;;;1.60;97.40;;;;;;5061008;28;20412;-67
2023/04/06 01:16:13;;;;;;;;;;;1.60;97.50;;;;;;4988326;28;220742;-67
2023/04/06 01:18:39;;;;;;;;;;;1.60;97.50;;;;;;5055824;28;20091;-67
2023/04/06 01:21:05;;;;;;;;;;;1.60;97.80;;;;;;4995141;28;210965;-67
2023/04/06 01:23:31;;;;;;;;;;;1.60;97.80;;;;;;5060546;28;19931;-68
2023/04/06 01:25:57;;;;;;;;;;;1.50;97.80;;;;;;5005074;28;229367;-67
2023/04/06 01:28:23;;;;;;;;;;;1.50;97.90;;;;;;5054710;28;20022;-68
2023/04/06 01:30:49;;;;;;;;;;;1.50;98.00;;;;;;5016609;28;208493;-67
2023/04/06 01:33:15;;;;;;;;;;;1.50;98.20;;;;;;5064937;28;19955;-68
2023/04/06 01:35:41;;;;;;;;;;;1.50;98.30;;;;;;5021557;28;208976;-69
2023/04/06 01:38:07;;;;;;;;;;;1.50;98.40;;;;;;5065726;28;19928;-72
2023/04/06 01:40:33;;;;;;;;;;;1.50;98.50;;;;;;5010553;28;207425;-68
2023/04/06 01:42:59;;;;;;;;;;;1.50;98.60;;;;;;5063424;28;19935;-67
2023/04/06 01:45:25;;;;;;;;;;;1.50;98.70;;;;;;5003521;28;210978;-68
2023/04/06 01:47:51;;;;;;;;;;;1.50;99.00;;;;;;5062257;28;19927;-68
2023/04/06 01:50:16;;;;;;;;;;;1.60;98.90;;;;;;5010655;28;209298;-68
2023/04/06 01:52:42;;;;;;;;;;;1.60;99.00;;;;;;5064450;28;20385;-68
2023/04/06 01:55:08;;;;;;;;;;;1.60;99.00;;;;;;5006312;28;207814;-68
2023/04/06 01:57:34;;;;;;;;;;;1.70;99.00;;;;;;5058154;28;20685;-68
2023/04/06 02:00:00;;;;;;;;;;;1.60;98.80;;;;;;5004761;28;209253;-67
2023/04/06 02:02:26;;;;;;;;;;;1.60;99.00;;;;;;5058053;28;19928;-67
2023/04/06 02:04:52;;;;;;;;;;;1.60;99.00;;;;;;5003285;28;207792;-67
2023/04/06 02:07:18;;;;;;;;;;;1.60;99.10;;;;;;5053910;28;19927;-67
2023/04/06 02:09:44;;;;;;;;;;;1.60;99.00;;;;;;5012102;28;208128;-67
2023/04/06 02:12:10;;;;;;;;;;;1.60;99.10;;;;;;5060747;28;20297;-68
2023/04/06 02:14:36;;;;;;;;;;;1.60;99.20;;;;;;5057449;28;19921;-68
2023/04/06 02:17:02;;;;;;;;;;;1.50;99.20;;;;;;5021360;28;269885;-67
2023/04/06 02:19:27;;;;;;;;;;;1.50;99.30;;;;;;5060633;28;19921;-68
2023/04/06 02:21:53;;;;;;;;;;;1.50;99.20;;;;;;5009516;28;213309;-68
2023/04/06 02:24:19;;;;;;;;;;;1.50;99.20;;;;;;5054968;28;19924;-68
2023/04/06 02:26:45;;;;;;;;;;;1.50;99.30;;;;;;5008783;28;206161;-67
2023/04/06 02:29:11;;;;;;;;;;;1.40;99.40;;;;;;5058332;28;19920;-68
2023/04/06 02:31:37;;;;;;;;;;;1.40;99.50;;;;;;5008778;28;206897;-68
2023/04/06 02:34:03;;;;;;;;;;;1.40;99.50;;;;;;5066045;28;20423;-67
2023/04/06 02:36:29;;;;;;;;;;;1.40;99.70;;;;;;5007999;28;208520;-67
2023/04/06 02:38:55;;;;;;;;;;;1.40;99.60;;;;;;5057202;28;20388;-67
2023/04/06 02:41:21;;;;;;;;;;;1.40;99.60;;;;;;5004336;28;188329;-67
2023/04/06 02:43:47;;;;;;;;;;;1.40;99.60;;;;;;5061798;28;19929;-67
2023/04/06 02:46:13;;;;;;;;;;;1.40;99.60;;;;;;5005701;28;208906;-68
2023/04/06 02:48:39;;;;;;;;;;;1.40;99.60;;;;;;5060087;28;19929;-68
2023/04/06 02:51:05;;;;;;;;;;;1.40;99.70;;;;;;5013814;28;211053;-68
2023/04/06 02:53:31;;;;;;;;;;;1.40;99.70;;;;;;5065275;28;19935;-68
2023/04/06 02:55:57;;;;;;;;;;;1.40;99.70;;;;;;4990223;28;207721;-68
2023/04/06 02:58:23;;;;;;;;;;;1.40;99.70;;;;;;5052967;28;20332;-66
2023/04/06 03:00:49;;;;;;;;;;;1.40;99.90;;;;;;4993859;28;207443;-68
2023/04/06 03:03:15;;;;;;;;;;;1.30;99.90;;;;;;5058799;28;19924;-67
2023/04/06 03:05:41;;;;;;;;;;;1.30;99.90;;;;;;4980126;28;209686;-67
2023/04/06 03:08:07;;;;;;;;;;;1.30;99.80;;;;;;5058535;28;19935;-68
2023/04/06 03:10:33;;;;;;;;;;;1.30;99.90;;;;;;4990340;28;210685;-68
2023/04/06 03:12:59;;;;;;;;;;;1.30;99.90;;;;;;5054088;28;19930;-67
2023/04/06 03:15:25;;;;;;;;;;;1.30;99.90;;;;;;5006992;28;207283;-67
2023/04/06 03:17:51;;;;;;;;;;;1.30;99.90;;;;;;5055037;28;19924;-67
2023/04/06 03:20:16;;;;;;;;;;;1.30;99.90;;;;;;5010704;28;205250;-67
2023/04/06 03:22:42;;;;;;;;;;;1.20;99.90;;;;;;5066994;28;20428;-68
2023/04/06 03:25:08;;;;;;;;;;;1.20;99.90;;;;;;4997341;28;209630;-68
2023/04/06 03:27:34;;;;;;;;;;;1.20;99.90;;;;;;5056738;28;19936;-68
2023/04/06 03:30:00;;;;;;;;;;;1.20;99.90;;;;;;5005311;28;210268;-68
2023/04/06 03:32:26;;;;;;;;;;;1.20;99.90;;;;;;5068319;28;20178;-67
2023/04/06 03:34:52;;;;;;;;;;;1.10;99.90;;;;;;5012005;28;207082;-68
2023/04/06 03:37:18;;;;;;;;;;;1.10;99.90;;;;;;5046920;28;19935;-68
2023/04/06 03:39:44;;;;;;;;;;;1.00;99.90;;;;;;5030767;28;211409;-67
2023/04/06 03:42:10;;;;;;;;;;;1.00;99.90;;;;;;5058648;28;19932;-67
2023/04/06 03:44:36;;;;;;;;;;;1.10;99.90;;;;;;5066335;28;20035;-68
2023/04/06 03:47:02;;;;;;;;;;;1.10;99.90;;;;;;4987370;28;221599;-66
2023/04/06 03:49:28;;;;;;;;;;;1.00;99.90;;;;;;5062631;28;19924;-68
2023/04/06 03:51:56;;;;;;;;;;;1.00;99.90;;;;;;5009767;28;183461;-67
2023/04/06 03:54:21;;;;;;;;;;;1.00;99.90;;;;;;5070587;28;20008;-68
2023/04/06 03:56:47;;;;;;;;;;;1.00;99.90;;;;;;5024182;28;208329;-68
2023/04/06 03:59:13;;;;;;;;;;;1.00;99.90;;;;;;5061123;28;20007;-67
2023/04/06 04:01:40;;;;;;;;;;;1.00;99.90;;;;;;5004711;28;206640;-67
2023/04/06 04:04:05;;;;;;;;;;;1.00;99.90;;;;;;5063381;28;19921;-67
2023/04/06 04:06:31;;;;;;;;;;;1.00;99.90;;;;;;4997140;28;210942;-68
2023/04/06 04:08:57;;;;;;;;;;;0.90;99.90;;;;;;5065064;28;19974;-69
2023/04/06 04:11:23;;;;;;;;;;;1.00;99.90;;;;;;4989108;28;207685;-68
2023/04/06 04:13:49;;;;;;;;;;;0.90;99.90;;;;;;5063518;28;19920;-68
2023/04/06 04:16:15;;;;;;;;;;;1.00;99.90;;;;;;5012822;28;207562;-66
2023/04/06 04:18:43;;;;;;;;;;;0.90;99.90;;;;;;5063962;28;19924;-67
2023/04/06 04:21:09;;;;;;;;;;;1.00;99.90;;;;;;5017557;28;213497;-67
2023/04/06 04:23:35;;;;;;;;;;;0.90;99.90;;;;;;5061759;28;19928;-68
2023/04/06 04:26:01;;;;;;;;;;;0.90;99.90;;;;;;4993383;28;211272;-67
2023/04/06 04:28:26;;;;;;;;;;;0.90;99.90;;;;;;5065219;28;19928;-67
2023/04/06 04:30:52;;;;;;;;;;;0.90;99.90;;;;;;5014981;28;207706;-68
2023/04/06 04:33:18;;;;;;;;;;;0.90;99.90;;;;;;5065545;28;19924;-67
2023/04/06 04:35:44;;;;;;;;;;;0.90;99.90;;;;;;5019814;28;206832;-67
2023/04/06 04:38:10;;;;;;;;;;;0.90;99.90;;;;;;5057411;28;19924;-68
2023/04/06 04:40:36;;;;;;;;;;;0.90;99.90;;;;;;5004708;28;221578;-67
2023/04/06 04:43:02;;;;;;;;;;;0.80;99.90;;;;;;5064752;28;19951;-66
2023/04/06 04:45:28;;;;;;;;;;;0.90;99.90;;;;;;5024691;28;208496;-67
2023/04/06 04:47:54;;;;;;;;;;;0.90;99.90;;;;;;5062004;28;19925;-67
2023/04/06 04:50:20;;;;;;;;;;;0.80;99.90;;;;;;5011194;28;212372;-68
2023/04/06 04:52:46;;;;;;;;;;;0.90;99.90;;;;;;5074063;28;19928;-67
2023/04/06 04:55:12;;;;;;;;;;;0.90;99.90;;;;;;5005146;28;187679;-68
2023/04/06 04:57:38;;;;;;;;;;;0.90;99.90;;;;;;5058970;28;20313;-68
2023/04/06 05:00:05;;;;;;;;;;;0.90;99.90;;;;;;5018411;28;208897;-68
2023/04/06 05:02:31;;;;;;;;;;;0.90;99.90;;;;;;5060180;28;19943;-68
2023/04/06 05:04:57;;;;;;;;;;;0.80;99.90;;;;;;4996725;28;204816;-67
2023/04/06 05:07:23;;;;;;;;;;;0.90;99.90;;;;;;5053532;28;19924;-67
2023/04/06 05:09:49;;;;;;;;;;;0.90;99.90;;;;;;5013943;28;208923;-67
2023/04/06 05:12:15;;;;;;;;;;;0.90;99.90;;;;;;5068771;28;19921;-68
2023/04/06 05:14:42;;;;;;;;;;;0.90;99.90;;;;;;5029830;28;209478;-66
2023/04/06 05:17:08;;;;;;;;;;;0.90;99.90;;;;;;5012848;28;262273;-68
2023/04/06 05:19:34;;;;;;;;;;;0.90;99.90;;;;;;5061106;28;20357;-67
2023/04/06 05:22:00;;;;;;;;;;;1.00;99.90;;;;;;4984775;28;217073;-67
2023/04/06 05:24:26;;;;;;;;;;;1.00;99.90;;;;;;5064582;28;20300;-67
2023/04/06 05:26:52;;;;;;;;;;;1.00;99.90;;;;;;4993956;28;206711;-69
2023/04/06 05:29:18;;;;;;;;;;;1.10;99.90;;;;;;5061242;28;19940;-67
2023/04/06 05:31:44;;;;;;;;;;;1.20;99.90;;;;;;5019487;28;212924;-70
2023/04/06 05:34:10;;;;;;;;;;;1.40;99.90;;;;;;5074605;28;19928;-67
2023/04/06 05:36:36;;;;;;;;;;;1.60;99.90;;;;;;5021333;28;215376;-67
2023/04/06 05:39:02;;;;;;;;;;;1.90;99.90;;;;;;5053019;28;19928;-67
2023/04/06 05:41:28;;;;;;;;;;;2.00;99.90;;;;;;4996357;28;211286;-67
2023/04/06 05:43:55;;;;;;;;;;;2.20;99.90;;;;;;5055573;28;19931;-68
2023/04/06 05:46:21;;;;;;;;;;;2.50;99.90;;;;;;5005572;28;210194;-68
2023/04/06 05:48:47;;;;;;;;;;;2.70;99.90;;;;;;5056284;28;20351;-68
2023/04/06 05:51:13;;;;;;;;;;;2.90;99.90;;;;;;4992848;28;213302;-68
2023/04/06 05:53:39;;;;;;;;;;;3.10;99.90;;;;;;5049895;28;20504;-68
2023/04/06 05:56:05;;;;;;;;;;;3.40;99.90;;;;;;5008600;28;227867;-67
2023/04/06 05:58:31;;;;;;;;;;;3.60;99.80;;;;;;5057206;28;19948;-67
2023/04/06 06:00:59;;;;;;;;;;;3.80;99.80;;;;;;5012609;28;205644;-66
2023/04/06 06:03:25;;;;;;;;;;;4.10;99.10;;;;;;5040892;28;19925;-66
2023/04/06 06:05:51;;;;;;;;;;;4.30;98.60;;;;;;4970940;28;212428;-67
2023/04/06 06:08:17;;;;;;;;;;;4.50;98.10;;;;;;5028570;28;19986;-67
2023/04/06 06:10:43;;;;;;;;;;;4.70;97.60;;;;;;4993671;28;228455;-68
2023/04/06 06:13:09;;;;;;;;;;;5.00;97.80;;;;;;5066524;28;20023;-67
2023/04/06 06:15:35;;;;;;;;;;;5.30;97.70;;;;;;5007544;28;214626;-68
2023/04/06 06:18:01;;;;;;;;;;;5.50;97.60;;;;;;5061833;28;19925;-68
2023/04/06 06:20:27;;;;;;;;;;;5.80;97.20;;;;;;5021599;28;209907;-67
2023/04/06 06:22:53;;;;;;;;;;;6.10;97.10;;;;;;5075644;28;19941;-68
2023/04/06 06:25:19;;;;;;;;;;;6.30;96.70;;;;;;5008995;28;207660;-67
2023/04/06 06:27:45;;;;;;;;;;;6.40;96.20;;;;;;5057298;28;19925;-68
2023/04/06 06:30:11;;;;;;;;;;;6.60;96.20;;;;;;4996195;28;207644;-67
2023/04/06 06:32:37;;;;;;;;;;;6.80;95.70;;;;;;5064661;28;20663;-67
2023/04/06 06:35:03;;;;;;;;;;;6.90;95.40;;;;;;5000645;28;208043;-68
2023/04/06 06:37:29;;;;;;;;;;;7.20;95.10;;;;;;5060271;28;20411;-68
2023/04/06 06:39:55;;;;;;;;;;;7.30;94.80;;;;;;5004815;28;207150;-68
2023/04/06 06:42:21;;;;;;;;;;;7.50;94.90;;;;;;5059625;28;19989;-67
2023/04/06 06:44:47;;;;;;;;;;;7.60;94.50;;;;;;5003371;28;233585;-67
2023/04/06 06:47:13;;;;;;;;;;;7.80;94.50;;;;;;5058945;28;20393;-69
2023/04/06 06:49:39;;;;;;;;;;;8.00;94.50;;;;;;5043585;28;207064;-68
2023/04/06 06:52:05;;;;;;;;;;;8.20;94.00;;;;;;5012819;28;207149;-71
2023/04/06 06:54:31;;;;;;;;;;;8.50;94.10;;;;;;5056685;28;19920;-68
2023/04/06 06:56:57;;;;;;;;;;;8.70;94.30;;;;;;5014054;28;209320;-68
2023/04/06 06:59:22;;;;;;;;;;;9.00;94.20;;;;;;5061413;28;20043;-68
2023/04/06 07:01:49;;;;;;;;;;;9.30;94.50;;;;;;5012897;28;207256;-68
2023/04/06 07:04:15;;;;;;;;;;;9.60;94.10;;;;;;5059959;28;19920;-69
2023/04/06 07:06:41;;;;;;;;;;;9.90;93.10;;;;;;4977962;28;197363;-68
2023/04/06 07:09:07;;;;;;;;;;;10.10;94.00;;;;;;5071303;28;20015;-69
2023/04/06 07:11:33;;;;;;;;;;;10.40;93.70;;;;;;5008545;28;210925;-69
2023/04/06 07:13:59;;;;;;;;;;;10.50;92.00;;;;;;5059761;28;19935;-69
2023/04/06 07:16:25;;;;;;;;;;;10.60;91.90;;;;;;5027173;28;207438;-69
2023/04/06 07:18:51;;;;;;;;;;;10.70;92.20;;;;;;5062047;28;19920;-69
2023/04/06 07:21:16;;;;;;;;;;;10.80;91.90;;;;;;4992000;28;222555;-68
2023/04/06 07:23:43;;;;;;;;;;;10.80;91.40;;;;;;5055957;28;19939;-69
2023/04/06 07:26:09;;;;;;;;;;;10.90;91.70;;;;;;5012751;28;214817;-69
2023/04/06 07:28:35;;;;;;;;;;;11.20;91.50;;;;;;5061510;28;19935;-69
2023/04/06 07:31:01;;;;;;;;;;;11.40;91.90;;;;;;4990177;28;207939;-68
2023/04/06 07:33:29;;;;;;;;;;;11.70;92.00;;;;;;5055210;28;19934;-69
2023/04/06 07:35:56;;;;;;;;;;;11.90;90.90;;;;;;4995556;28;249415;-68
2023/04/06 07:38:22;;;;;;;;;;;12.00;90.90;;;;;;5059394;28;19931;-68
2023/04/06 07:40:48;;;;;;;;;;;12.10;91.00;;;;;;5014044;28;223000;-68
2023/04/06 07:43:14;;;;;;;;;;;12.30;90.10;;;;;;5065585;28;20393;-69
2023/04/06 07:45:40;;;;;;;;;;;12.40;90.50;;;;;;5002297;28;207516;-68
2023/04/06 07:48:06;;;;;;;;;;;12.50;90.30;;;;;;5068059;28;19920;-69
2023/04/06 07:50:32;;;;;;;;;;;12.60;89.30;;;;;;5017878;28;193946;-71
2023/04/06 07:52:58;;;;;;;;;;;12.90;90.60;;;;;;5059826;28;19929;-69
2023/04/06 07:55:24;;;;;;;;;;;13.10;89.30;;;;;;5014506;28;208213;-68
2023/04/06 07:57:50;;;;;;;;;;;13.30;88.50;;;;;;5068416;28;20057;-67
2023/04/06 08:00:16;;;;;;;;;;;13.30;88.00;;;;;;5008762;28;210965;-68
2023/04/06 08:02:42;;;;;;;;;;;13.60;90.10;;;;;;5067023;28;20310;-69
2023/04/06 08:05:09;;;;;;;;;;;14.00;89.30;;;;;;5000592;28;211456;-68
2023/04/06 08:07:35;;;;;;;;;;;14.30;87.20;;;;;;5071737;28;20316;-69
2023/04/06 08:10:01;;;;;;;;;;;14.40;88.30;;;;;;5008921;28;207988;-69
2023/04/06 08:12:27;;;;;;;;;;;14.60;86.10;;;;;;5043676;28;19936;-68
2023/04/06 08:14:53;;;;;;;;;;;14.80;86.30;;;;;;5003459;28;215707;-68
2023/04/06 08:17:19;;;;;;;;;;;14.90;86.10;;;;;;5072957;28;20011;-69
2023/04/06 08:19:45;;;;;;;;;;;15.20;85.00;;;;;;5001711;28;210126;-68
2023/04/06 08:22:11;;;;;;;;;;;15.40;81.10;;;;;;5056520;28;19932;-70
2023/04/06 08:24:37;;;;;;;;;;;15.50;84.70;;;;;;5062357;28;216483;-70
2023/04/06 08:27:04;;;;;;;;;;;15.60;82.50;;;;;;5026776;28;207338;-69
2023/04/06 08:29:29;;;;;;;;;;;15.90;84.90;;;;;;5060850;28;19928;-69
2023/04/06 08:31:56;;;;;;;;;;;16.10;79.60;;;;;;5011012;28;225762;-69
2023/04/06 08:34:22;;;;;;;;;;;16.30;81.20;;;;;;5057260;28;19925;-70
2023/04/06 08:36:48;;;;;;;;;;;16.50;78.90;;;;;;5004144;28;206884;-69
2023/04/06 08:39:14;;;;;;;;;;;16.60;82.10;;;;;;5061958;28;19924;-70
2023/04/06 08:41:43;;;;;;;;;;;16.40;80.20;;;;;;5023801;28;209372;-69
2023/04/06 08:44:11;;;;;;;;;;;16.60;80.30;;;;;;5059455;28;19928;-70
2023/04/06 08:46:37;;;;;;;;;;;16.90;78.00;;;;;;5001666;28;207595;-70
2023/04/06 08:49:06;;;;;;;;;;;16.80;77.40;;;;;;5059888;28;20571;-70
2023/04/06 08:51:32;;;;;;;;;;;16.80;75.20;;;;;;5020866;28;209530;-70
2023/04/06 08:53:58;;;;;;;;;;;17.00;78.30;;;;;;5058164;28;20265;-70
2023/04/06 08:56:26;;;;;;;;;;;16.90;76.60;;;;;;5019839;28;210924;-71
2023/04/06 08:58:52;;;;;;;;;;;17.20;74.70;;;;;;5059334;28;19921;-71
2023/04/06 09:01:21;;;;;;;;;;;17.40;74.20;;;;;;5014932;28;211265;-71
2023/04/06 09:03:48;;;;;;;;;;;17.70;76.00;;;;;;5060901;28;19932;-70
2023/04/06 09:06:14;;;;;;;;;;;17.60;74.40;;;;;;4992491;28;214126;-69
2023/04/06 09:08:40;;;;;;;;;;;17.10;73.30;;;;;;5062401;28;19925;-70
2023/04/06 09:11:07;;;;;;;;;;;16.30;72.30;;;;;;4996792;28;212640;-70
2023/04/06 09:14:05;;;;;;;;;;;15.20;70.50;;;;;;5065302;28;19931;-71
2023/04/06 09:16:38;;;;;;;;;;;14.90;74.20;;;;;;4980710;28;201831;-70
2023/04/06 09:19:05;;;;;;;;;;;14.60;74.60;;;;;;5063507;28;19940;-69
2023/04/06 09:21:31;;;;;;;;;;;14.50;74.50;;;;;;5017388;28;209409;-69
2023/04/06 09:24:01;;;;;;;;;;;14.70;74.10;;;;;;5054847;28;19925;-71
2023/04/06 09:26:27;;;;;;;;;;;15.30;76.60;;;;;;5002717;28;210975;-70
2023/04/06 09:28:54;;;;;;;;;;;16.00;72.90;;;;;;5055380;28;19920;-70
2023/04/06 09:31:24;;;;;;;;;;;16.30;74.70;;;;;;5007433;28;208159;-70
2023/04/06 09:33:51;;;;;;;;;;;16.50;74.40;;;;;;5058559;28;19936;-70
2023/04/06 09:36:17;;;;;;;;;;;16.40;74.20;;;;;;4986523;28;200335;-71
2023/04/06 09:38:56;;;;;;;;;;;16.50;74.50;;;;;;5058101;28;19920;-70
2023/04/06 09:41:23;;;;;;;;;;;16.40;72.60;;;;;;5012284;28;208850;-71
2023/04/06 09:43:50;;;;;;;;;;;15.80;72.90;;;;;;5057743;28;20168;-68
2023/04/06 09:46:16;;;;;;;;;;;15.70;73.20;;;;;;5008741;28;210158;-68
2023/04/06 09:48:42;;;;;;;;;;;15.40;73.40;;;;;;5054314;28;19929;-69
2023/04/06 09:51:10;;;;;;;;;;;15.20;73.60;;;;;;5003882;28;206670;-69
2023/04/06 09:53:37;;;;;;;;;;;15.20;74.20;;;;;;5054885;28;20484;-69
2023/04/06 09:56:06;;;;;;;;;;;14.90;73.10;;;;;;5004624;28;206675;-69
2023/04/06 09:58:35;;;;;;;;;;;14.70;75.10;;;;;;5061217;28;19924;-69
2023/04/06 10:01:09;;;;;;;;;;;14.90;74.10;;;;;;5008766;28;207843;-69
2023/04/06 10:03:58;;;;;;;;;;;15.10;74.50;;;;;;5068108;28;19944;-67
2023/04/06 10:06:25;;;;;;;;;;;15.30;74.30;;;;;;4989806;28;219123;-68
2023/04/06 10:08:53;;;;;;;;;;;16.00;76.00;;;;;;5053942;28;19924;-67
2023/04/06 10:11:19;;;;;;;;;;;16.10;74.50;;;;;;5014033;28;212365;-68
2023/04/06 10:13:47;;;;;;;;;;;15.90;74.10;;;;;;5060001;28;19935;-67
2023/04/06 10:16:14;;;;;;;;;;;15.30;73.60;;;;;;5004596;28;210323;-68
2023/04/06 10:18:41;;;;;;;;;;;15.40;73.80;;;;;;5051569;28;19977;-67
2023/04/06 10:21:09;;;;;;;;;;;15.80;76.10;;;;;;4998031;28;209678;-68
2023/04/06 10:23:41;;;;;;;;;;;16.50;76.70;;;;;;5058637;28;19932;-67
2023/04/06 10:26:12;;;;;;;;;;;16.20;73.20;;;;;;5002650;28;220671;-68
2023/04/06 10:28:41;;;;;;;;;;;16.00;74.10;;;;;;5054827;28;20701;-69
2023/04/06 10:31:07;;;;;;;;;;;16.20;75.90;;;;;;5013830;28;234656;-67
2023/04/06 10:33:33;;;;;;;;;;;16.60;75.10;;;;;;5056774;28;19928;-67
2023/04/06 10:36:12;;;;;;;;;;;16.90;74.20;;;;;;5003877;28;211545;-74
2023/04/06 10:38:39;;;;;;;;;;;17.00;73.10;;;;;;5059681;28;19932;-69
2023/04/06 10:41:05;;;;;;;;;;;16.70;73.40;;;;;;5001569;28;208591;-66
2023/04/06 10:43:36;;;;;;;;;;;16.90;75.10;;;;;;5059655;28;19924;-67
2023/04/06 10:46:02;;;;;;;;;;;17.50;74.30;;;;;;5022468;28;210114;-69
2023/04/06 10:48:41;;;;;;;;;;;18.10;74.50;;;;;;5068163;28;19925;-68
2023/04/06 10:51:14;;;;;;;;;;;18.20;70.80;;;;;;5008451;28;210558;-68
2023/04/06 10:53:45;;;;;;;;;;;18.20;73.80;;;;;;5061055;28;19925;-68
2023/04/06 10:56:11;;;;;;;;;;;17.90;70.40;;;;;;5018288;28;212581;-68
2023/04/06 10:58:38;;;;;;;;;;;17.50;72.20;;;;;;5062920;28;19935;-67
2023/04/06 11:01:04;;;;;;;;;;;17.60;72.20;;;;;;5002124;28;187041;-68
2023/04/06 11:03:32;;;;;;;;;;;17.60;71.70;;;;;;5056980;28;19932;-67
2023/04/06 11:05:57;;;;;;;;;;;17.30;72.90;;;;;;5010185;28;210323;-68
2023/04/06 11:08:30;;;;;;;;;;;17.60;72.40;;;;;;5057993;28;19939;-69
2023/04/06 11:11:07;;;;;;;;;;;17.80;72.20;;;;;;5012933;28;218124;-68
2023/04/06 11:13:43;;;;;;;;;;;17.90;73.30;;;;;;5069869;28;19920;-67
2023/04/06 11:16:15;;;;;;;;;;;18.00;73.00;;;;;;5010877;28;226728;-68
2023/04/06 11:18:52;;;;;;;;;;;18.10;73.80;;;;;;5062493;28;19931;-66
2023/04/06 11:21:19;;;;;;;;;;;18.10;71.00;;;;;;4998340;28;219018;-69
2023/04/06 11:23:45;;;;;;;;;;;17.70;70.00;;;;;;5058059;28;19936;-67
2023/04/06 11:26:12;;;;;;;;;;;16.90;69.50;;;;;;5014026;28;209300;-67
2023/04/06 11:28:39;;;;;;;;;;;16.00;69.20;;;;;;5070255;28;19928;-68
2023/04/06 11:31:05;;;;;;;;;;;15.10;70.90;;;;;;5014995;28;212689;-66
2023/04/06 11:33:38;;;;;;;;;;;15.10;71.10;;;;;;5063191;28;19929;-67
2023/04/06 11:36:05;;;;;;;;;;;15.00;70.90;;;;;;5013979;28;209565;-68
2023/04/06 11:38:31;;;;;;;;;;;15.00;71.20;;;;;;5056477;28;19921;-67
2023/04/06 11:40:57;;;;;;;;;;;14.90;71.80;;;;;;5001331;28;225208;-66
2023/04/06 11:43:28;;;;;;;;;;;15.10;72.60;;;;;;5065227;28;19936;-65
2023/04/06 11:46:00;;;;;;;;;;;14.70;71.20;;;;;;5006808;28;215695;-66
2023/04/06 11:48:25;;;;;;;;;;;14.50;71.00;;;;;;5063214;28;19924;-66
2023/04/06 11:50:55;;;;;;;;;;;14.40;71.40;;;;;;5013073;28;207176;-67
2023/04/06 11:53:21;;;;;;;;;;;14.40;71.50;;;;;;5063809;28;19934;-66
2023/04/06 11:55:47;;;;;;;;;;;14.30;71.60;;;;;;5016951;28;70674;-66
2023/04/06 11:58:13;;;;;;;;;;;14.50;70.90;;;;;;5066299;28;20020;-66
2023/04/06 12:00:39;;;;;;;;;;;14.60;72.00;;;;;;5006339;28;216207;-66
2023/04/06 12:03:05;;;;;;;;;;;14.70;71.00;;;;;;5060203;28;20027;-67
2023/04/06 12:05:32;;;;;;;;;;;15.00;72.00;;;;;;4981767;28;234773;-66
2023/04/06 12:07:58;;;;;;;;;;;15.40;72.10;;;;;;5055645;28;19928;-66
2023/04/06 12:10:24;;;;;;;;;;;15.40;71.10;;;;;;5011096;28;208322;-67
2023/04/06 12:12:50;;;;;;;;;;;15.50;71.30;;;;;;5073230;28;19928;-67
2023/04/06 12:15:16;;;;;;;;;;;15.30;70.00;;;;;;5009796;28;210810;-67
2023/04/06 12:17:42;;;;;;;;;;;15.10;70.60;;;;;;5071707;28;20525;-66
2023/04/06 12:20:08;;;;;;;;;;;15.00;70.00;;;;;;4999852;28;208751;-66
2023/04/06 12:22:34;;;;;;;;;;;15.10;70.80;;;;;;5068922;28;20432;-66
2023/04/06 12:25:00;;;;;;;;;;;15.00;71.40;;;;;;5000527;28;218717;-65
2023/04/06 12:27:26;;;;;;;;;;;14.90;70.60;;;;;;5070419;28;20384;-67
2023/04/06 12:29:53;;;;;;;;;;;14.80;71.60;;;;;;4998607;28;209825;-66
2023/04/06 12:32:19;;;;;;;;;;;15.00;71.90;;;;;;5057661;28;19921;-65
2023/04/06 12:34:45;;;;;;;;;;;15.40;72.40;;;;;;5010436;28;211299;-65
2023/04/06 12:37:11;;;;;;;;;;;15.70;72.20;;;;;;5059178;28;19952;-66
2023/04/06 12:39:37;;;;;;;;;;;16.00;72.70;;;;;;5054149;28;20392;-65
2023/04/06 12:42:03;;;;;;;;;;;16.40;72.50;;;;;;4997634;28;305914;-66
2023/04/06 12:44:29;;;;;;;;;;;16.40;70.80;;;;;;5057316;28;20476;-65
2023/04/06 12:46:56;;;;;;;;;;;15.90;70.20;;;;;;4973107;28;207910;-66
2023/04/06 12:49:22;;;;;;;;;;;15.60;71.20;;;;;;5057234;28;19935;-65
2023/04/06 12:51:47;;;;;;;;;;;15.80;72.30;;;;;;5001973;28;211439;-65
2023/04/06 12:54:13;;;;;;;;;;;15.80;70.50;;;;;;5053062;28;19926;-68
2023/04/06 12:56:40;;;;;;;;;;;15.60;71.00;;;;;;5002731;28;205481;-68
2023/04/06 12:59:06;;;;;;;;;;;15.40;70.60;;;;;;5056653;28;20482;-69
2023/04/06 13:01:32;;;;;;;;;;;14.90;70.40;;;;;;5007599;28;218438;-68
2023/04/06 13:03:59;;;;;;;;;;;14.70;71.80;;;;;;5060244;28;19931;-70
2023/04/06 13:06:28;;;;;;;;;;;14.40;71.40;;;;;;4995496;28;226886;-67
2023/04/06 13:08:54;;;;;;;;;;;14.40;72.30;;;;;;5071128;28;19931;-68
2023/04/06 13:11:21;;;;;;;;;;;14.50;72.90;;;;;;4999019;28;209540;-68
2023/04/06 13:13:47;;;;;;;;;;;14.60;72.60;;;;;;5056246;28;19925;-68
2023/04/06 13:16:13;;;;;;;;;;;14.60;72.10;;;;;;5005995;28;209631;-69
2023/04/06 13:18:39;;;;;;;;;;;14.70;72.30;;;;;;5061536;28;19928;-68
2023/04/06 13:21:06;;;;;;;;;;;14.90;73.00;;;;;;5009279;28;208053;-68
2023/04/06 13:23:32;;;;;;;;;;;14.90;73.30;;;;;;5064134;28;19928;-69
2023/04/06 13:25:59;;;;;;;;;;;14.40;72.10;;;;;;5009426;28;227527;-69
2023/04/06 13:28:25;;;;;;;;;;;14.00;72.50;;;;;;5057149;28;20019;-70
2023/04/06 13:30:52;;;;;;;;;;;14.00;74.00;;;;;;4987563;28;205628;-69
2023/04/06 13:33:18;;;;;;;;;;;13.90;74.30;;;;;;5062976;28;19928;-69
2023/04/06 13:35:44;;;;;;;;;;;13.90;74.60;;;;;;5001483;28;217167;-68
2023/04/06 13:38:10;;;;;;;;;;;13.80;75.10;;;;;;5069765;28;19936;-69
2023/04/06 13:40:39;;;;;;;;;;;13.70;75.80;;;;;;5015407;28;209629;-69
2023/04/06 13:43:05;;;;;;;;;;;13.80;76.50;;;;;;5072618;28;20488;-68
2023/04/06 13:45:31;;;;;;;;;;;13.70;76.90;;;;;;5008956;28;207345;-68
2023/04/06 13:47:57;;;;;;;;;;;13.60;77.10;;;;;;5063423;28;19925;-69
2023/04/06 13:50:25;;;;;;;;;;;13.60;77.50;;;;;;5006554;28;237813;-68
2023/04/06 13:52:51;;;;;;;;;;;13.50;78.30;;;;;;5063659;28;20077;-68
2023/04/06 13:55:17;;;;;;;;;;;13.40;77.20;;;;;;5008737;28;210374;-68
2023/04/06 13:57:43;;;;;;;;;;;13.30;78.40;;;;;;5050668;28;20376;-68
2023/04/06 14:00:11;;;;;;;;;;;13.20;79.30;;;;;;5011727;28;208924;-68
2023/04/06 14:02:37;;;;;;;;;;;13.20;79.70;;;;;;5067504;28;19936;-67
2023/04/06 14:05:03;;;;;;;;;;;13.20;80.30;;;;;;4977068;28;208255;-67
2023/04/06 14:07:29;;;;;;;;;;;13.20;80.80;;;;;;5042293;28;19935;-68
2023/04/06 14:09:55;;;;;;;;;;;13.10;81.20;;;;;;4995200;28;210851;-68
2023/04/06 14:12:21;;;;;;;;;;;13.10;81.30;;;;;;5055758;28;19934;-67